createdAt,value
2017-10-13T00:01:17.991Z,16.10
2017-10-13T00:03:46.323Z,11.83
2017-10-13T00:06:14.680Z,18.67
2017-10-13T00:08:43.765Z,17.90
2017-10-13T00:11:12.087Z,16.40
2017-10-13T00:13:40.412Z,20.23
2017-10-13T00:16:08.737Z,12.03
2017-10-13T00:18:37.922Z,17.90
2017-10-13T00:21:06.255Z,16.20
2017-10-13T00:23:34.585Z,24.90
2017-10-13T00:26:02.922Z,16.07
2017-10-13T00:28:31.369Z,17.20
2017-10-13T00:31:00.469Z,15.90
2017-10-13T00:33:29.571Z,26.10
2017-10-13T00:35:58.667Z,21.57
2017-10-13T00:38:27.919Z,20.73
2017-10-13T00:40:56.288Z,19.47
2017-10-13T00:43:24.618Z,22.30
2017-10-13T00:45:52.999Z,23.10
2017-10-13T00:48:21.322Z,25.53
2017-10-13T00:50:49.649Z,25.97
2017-10-13T00:53:17.969Z,20.00
2017-10-13T00:55:46.309Z,18.03
2017-10-13T00:58:14.624Z,19.17
2017-10-13T01:00:43.716Z,18.13
2017-10-13T01:03:12.816Z,24.63
2017-10-13T01:05:41.910Z,21.20
2017-10-13T01:08:10.984Z,30.73
2017-10-13T01:10:39.311Z,26.67
2017-10-13T01:13:07.619Z,18.57
2017-10-13T01:15:35.941Z,22.03
2017-10-13T01:18:04.248Z,19.47
2017-10-13T01:20:33.339Z,18.17
2017-10-13T01:23:02.430Z,21.33
2017-10-13T01:25:30.754Z,16.10
2017-10-13T01:27:59.061Z,17.33
2017-10-13T01:30:27.388Z,14.27
2017-10-13T01:32:56.472Z,17.20
2017-10-13T01:35:24.808Z,16.97
2017-10-13T01:37:53.956Z,29.73
2017-10-13T01:40:23.152Z,14.70
2017-10-13T01:42:51.503Z,13.33
2017-10-13T01:45:19.983Z,21.80
2017-10-13T01:47:48.294Z,22.73
2017-10-13T01:50:16.623Z,15.63
2017-10-13T01:52:45.019Z,14.70
2017-10-13T01:55:13.339Z,17.97
2017-10-13T01:57:41.838Z,18.50
2017-10-13T02:00:10.169Z,16.13
2017-10-13T02:02:38.553Z,21.57
2017-10-13T02:05:06.895Z,27.73
2017-10-13T02:07:35.978Z,14.57
2017-10-13T02:10:04.309Z,19.80
2017-10-13T02:12:32.622Z,19.37
2017-10-13T02:15:00.949Z,17.83
2017-10-13T02:17:30.014Z,21.13
2017-10-13T02:19:58.360Z,15.77
2017-10-13T02:22:26.670Z,19.20
2017-10-13T02:24:54.997Z,19.70
2017-10-13T02:27:24.092Z,21.30
2017-10-13T02:29:53.258Z,20.20
2017-10-13T02:32:21.590Z,19.00
2017-10-13T02:34:49.907Z,20.87
2017-10-13T02:37:18.239Z,17.83
2017-10-13T02:39:46.568Z,25.43
2017-10-13T02:42:14.884Z,21.60
2017-10-13T02:44:43.516Z,18.30
2017-10-13T02:47:11.841Z,22.90
2017-10-13T02:49:40.158Z,20.57
2017-10-13T02:52:09.248Z,18.90
2017-10-13T02:54:38.424Z,16.63
2017-10-13T02:57:06.752Z,23.27
2017-10-13T02:59:35.059Z,22.70
2017-10-13T03:02:03.396Z,16.27
2017-10-13T03:04:32.487Z,17.10
2017-10-13T03:07:01.597Z,21.77
2017-10-13T03:09:30.673Z,19.40
2017-10-13T03:11:58.996Z,23.43
2017-10-13T03:14:27.308Z,24.23
2017-10-13T03:16:55.628Z,23.83
2017-10-13T03:19:24.711Z,18.60
2017-10-13T03:21:53.039Z,21.50
2017-10-13T03:24:21.339Z,28.70
2017-10-13T03:26:49.664Z,23.97
2017-10-13T03:29:17.992Z,24.80
2017-10-13T03:31:46.695Z,23.53
2017-10-13T03:34:15.864Z,19.43
2017-10-13T03:36:44.945Z,19.80
2017-10-13T03:39:13.289Z,21.83
2017-10-13T03:41:41.612Z,22.07
2017-10-13T03:44:10.687Z,28.63
2017-10-13T03:46:39.015Z,22.80
2017-10-13T03:49:07.338Z,24.40
2017-10-13T03:51:35.665Z,23.70
2017-10-13T03:54:04.778Z,28.73
2017-10-13T03:56:33.088Z,32.90
2017-10-13T03:59:01.448Z,24.33
2017-10-13T04:01:29.760Z,21.10
2017-10-13T04:03:58.082Z,21.70
2017-10-13T04:06:27.332Z,20.30
2017-10-13T04:08:55.636Z,19.97
2017-10-13T04:11:23.972Z,23.97
2017-10-13T04:13:52.274Z,26.30
2017-10-13T04:16:20.651Z,19.70
2017-10-13T04:18:49.000Z,27.47
2017-10-13T04:21:18.098Z,23.03
2017-10-13T04:23:47.207Z,17.10
2017-10-13T04:26:16.318Z,24.07
2017-10-13T04:28:45.398Z,21.10
2017-10-13T04:31:14.487Z,19.90
2017-10-13T04:33:42.805Z,33.73
2017-10-13T04:36:11.192Z,17.73
2017-10-13T04:38:39.509Z,24.03
2017-10-13T04:41:07.828Z,19.60
2017-10-13T04:43:36.914Z,27.20
2017-10-13T04:46:06.002Z,20.20
2017-10-13T04:48:34.310Z,23.10
2017-10-13T04:51:03.399Z,18.80
2017-10-13T04:53:32.503Z,18.90
2017-10-13T04:56:01.603Z,25.80
2017-10-13T04:58:30.671Z,27.10
2017-10-13T05:00:58.998Z,20.83
2017-10-13T05:03:27.330Z,24.53
2017-10-13T05:05:55.655Z,22.20
2017-10-13T05:08:24.751Z,29.33
2017-10-13T05:10:53.841Z,33.53
2017-10-13T05:13:22.200Z,27.93
2017-10-13T05:15:50.518Z,26.67
2017-10-13T05:18:19.606Z,30.40
2017-10-13T05:20:48.666Z,34.83
2017-10-13T05:23:17.010Z,26.37
2017-10-13T05:25:45.319Z,26.40
2017-10-13T05:28:13.632Z,27.40
2017-10-13T05:30:41.951Z,26.30
2017-10-13T05:33:10.280Z,30.87
2017-10-13T05:35:38.576Z,24.27
2017-10-13T05:38:07.662Z,23.17
2017-10-13T05:40:35.979Z,25.50
2017-10-13T05:43:05.048Z,27.40
2017-10-13T05:45:33.368Z,26.63
2017-10-13T05:48:02.768Z,33.10
2017-10-13T05:50:31.921Z,27.23
2017-10-13T05:53:00.239Z,27.93
2017-10-13T05:55:28.552Z,27.40
2017-10-13T05:57:56.866Z,22.63
2017-10-13T06:00:25.168Z,19.27
2017-10-13T06:02:53.470Z,26.63
2017-10-13T06:05:22.656Z,26.97
2017-10-13T06:07:51.023Z,30.43
2017-10-13T06:10:19.318Z,28.73
2017-10-13T06:12:47.650Z,30.93
2017-10-13T06:15:15.979Z,36.73
2017-10-13T06:17:44.307Z,35.17
2017-10-13T06:20:12.665Z,32.77
2017-10-13T06:22:41.762Z,28.77
2017-10-13T06:25:10.858Z,35.70
2017-10-13T06:27:40.710Z,41.20
2017-10-13T06:30:09.036Z,35.40
2017-10-13T06:32:37.352Z,44.47
2017-10-13T06:35:06.417Z,43.80
2017-10-13T06:37:34.718Z,50.33
2017-10-13T06:40:03.856Z,36.80
2017-10-13T06:42:32.160Z,50.50
2017-10-13T06:45:00.476Z,47.23
2017-10-13T06:47:28.800Z,53.53
2017-10-13T06:49:57.117Z,48.00
2017-10-13T06:52:25.438Z,52.37
2017-10-13T06:54:54.523Z,62.73
2017-10-13T06:57:22.868Z,40.90
2017-10-13T06:59:51.171Z,42.70
2017-10-13T07:02:19.476Z,73.27
2017-10-13T07:04:48.543Z,51.10
2017-10-13T07:07:16.840Z,60.37
2017-10-13T07:09:45.156Z,60.83
2017-10-13T07:12:13.937Z,49.40
2017-10-13T07:14:42.270Z,49.13
2017-10-13T07:17:10.603Z,74.27
2017-10-13T07:19:39.680Z,55.93
2017-10-13T07:22:08.010Z,77.70
2017-10-13T07:24:36.312Z,65.40
2017-10-13T07:27:04.671Z,42.70
2017-10-13T07:29:32.996Z,41.20
2017-10-13T07:32:01.336Z,44.90
2017-10-13T07:34:29.636Z,44.80
2017-10-13T07:36:58.035Z,32.63
2017-10-13T07:39:26.351Z,49.43
2017-10-13T07:41:55.501Z,52.93
2017-10-13T07:44:23.807Z,36.63
2017-10-13T07:46:52.131Z,34.00
2017-10-13T07:49:20.617Z,35.77
2017-10-13T07:51:48.917Z,39.10
2017-10-13T07:54:17.293Z,36.80
2017-10-13T07:56:45.595Z,33.77
2017-10-13T07:59:13.939Z,35.97
2017-10-13T08:01:43.035Z,39.03
2017-10-13T08:04:12.113Z,39.50
2017-10-13T08:06:40.425Z,41.00
2017-10-13T08:09:08.733Z,37.20
2017-10-13T08:11:37.050Z,39.87
2017-10-13T08:14:05.406Z,42.20
2017-10-13T08:16:33.722Z,36.83
2017-10-13T08:19:02.043Z,42.50
2017-10-13T08:21:30.374Z,40.00
2017-10-13T08:23:58.743Z,43.60
2017-10-13T08:26:27.063Z,42.00
2017-10-13T08:28:56.126Z,45.77
2017-10-13T08:31:24.446Z,39.33
2017-10-13T08:33:53.519Z,43.30
2017-10-13T08:36:21.817Z,38.20
2017-10-13T08:38:50.162Z,40.47
2017-10-13T08:41:18.492Z,41.77
2017-10-13T08:43:47.556Z,36.13
2017-10-13T08:46:15.864Z,42.80
2017-10-13T08:48:44.944Z,44.43
2017-10-13T08:51:13.309Z,41.00
2017-10-13T08:53:41.844Z,49.13
2017-10-13T08:56:10.913Z,38.10
2017-10-13T08:58:39.237Z,39.93
2017-10-13T09:01:07.556Z,37.90
2017-10-13T09:03:35.851Z,45.33
2017-10-13T09:06:04.176Z,43.57
2017-10-13T09:08:32.488Z,37.70
2017-10-13T09:11:00.798Z,45.07
2017-10-13T09:13:29.116Z,43.57
2017-10-13T09:15:58.205Z,31.63
2017-10-13T09:18:27.307Z,40.03
2017-10-13T09:20:56.384Z,37.37
2017-10-13T09:23:24.699Z,42.90
2017-10-13T09:25:53.853Z,42.17
2017-10-13T09:28:22.171Z,37.37
2017-10-13T09:30:51.242Z,33.03
2017-10-13T09:33:19.602Z,33.57
2017-10-13T09:35:47.954Z,35.43
2017-10-13T09:38:16.254Z,29.63
2017-10-13T09:40:44.578Z,27.13
2017-10-13T09:43:12.880Z,26.73
2017-10-13T09:45:41.967Z,25.20
2017-10-13T09:48:11.057Z,27.67
2017-10-13T09:50:39.379Z,25.00
2017-10-13T09:53:07.874Z,24.27
2017-10-13T09:55:36.179Z,26.17
2017-10-13T09:58:04.489Z,21.70
2017-10-13T10:00:32.804Z,22.53
2017-10-13T10:03:01.115Z,23.60
2017-10-13T10:05:29.431Z,20.27
2017-10-13T10:07:57.879Z,19.87
2017-10-13T10:10:26.195Z,18.83
2017-10-13T10:12:54.517Z,18.30
2017-10-13T10:15:22.826Z,17.17
2017-10-13T10:17:51.129Z,16.30
2017-10-13T10:20:19.634Z,21.37
2017-10-13T10:22:47.947Z,19.70
2017-10-13T10:25:16.249Z,14.43
2017-10-13T10:27:44.585Z,17.60
2017-10-13T10:30:12.946Z,16.37
2017-10-13T10:32:41.242Z,15.63
2017-10-13T10:35:09.561Z,13.03
2017-10-13T10:37:37.883Z,8.63
2017-10-13T10:40:06.194Z,8.53
2017-10-13T10:42:34.512Z,7.80
2017-10-13T10:45:02.806Z,5.60
2017-10-13T10:47:31.101Z,4.70
2017-10-13T10:49:59.397Z,7.13
2017-10-13T10:52:27.694Z,6.67
2017-10-13T10:54:56.000Z,6.60
2017-10-13T10:57:25.076Z,5.20
2017-10-13T10:59:53.468Z,6.77
2017-10-13T11:02:21.813Z,5.00
2017-10-13T11:04:50.109Z,5.57
2017-10-13T11:07:18.407Z,5.60
2017-10-13T11:09:46.726Z,5.83
2017-10-13T11:12:15.040Z,8.70
2017-10-13T11:14:43.424Z,4.60
2017-10-13T11:17:11.733Z,8.57
2017-10-13T11:19:40.031Z,6.83
2017-10-13T11:22:09.106Z,7.23
2017-10-13T11:24:37.460Z,10.20
2017-10-13T11:27:05.802Z,7.13
2017-10-13T11:29:34.873Z,6.80
2017-10-13T11:32:03.202Z,7.70
2017-10-13T11:34:31.520Z,7.47
2017-10-13T11:36:59.836Z,5.90
2017-10-13T11:39:28.893Z,4.70
2017-10-13T11:41:58.039Z,6.80
2017-10-13T11:44:27.117Z,5.77
2017-10-13T11:46:54.709Z,5.07
2017-10-13T11:49:23.827Z,5.60
2017-10-13T11:51:52.125Z,5.67
2017-10-13T11:54:20.439Z,11.10
2017-10-13T11:56:48.741Z,8.10
2017-10-13T11:59:17.817Z,8.53
2017-10-13T12:01:46.142Z,8.63
2017-10-13T12:04:14.482Z,7.00
2017-10-13T12:06:42.776Z,6.93
2017-10-13T12:09:11.068Z,7.73
2017-10-13T12:11:40.147Z,8.00
2017-10-13T12:14:08.444Z,7.20
2017-10-13T12:16:37.498Z,6.17
2017-10-13T12:19:05.836Z,7.60
2017-10-13T12:21:34.968Z,7.80
2017-10-13T12:24:03.312Z,5.37
2017-10-13T12:26:32.379Z,5.97
2017-10-13T12:29:00.699Z,8.60
2017-10-13T12:31:29.900Z,4.23
2017-10-13T12:33:58.965Z,6.57
2017-10-13T12:36:27.279Z,7.07
2017-10-13T12:38:56.363Z,6.67
2017-10-13T12:41:25.094Z,7.87
2017-10-13T12:43:53.399Z,7.07
2017-10-13T12:46:21.714Z,7.10
2017-10-13T12:48:50.024Z,8.93
2017-10-13T12:51:18.327Z,5.30
2017-10-13T12:53:46.645Z,6.60
2017-10-13T12:56:15.799Z,6.80
2017-10-13T12:58:44.130Z,5.37
2017-10-13T13:01:12.510Z,5.00
2017-10-13T13:03:41.596Z,4.90
2017-10-13T13:06:09.918Z,6.17
2017-10-13T13:08:39.036Z,9.40
2017-10-13T13:11:07.346Z,3.70
2017-10-13T13:13:35.806Z,5.50
2017-10-13T13:16:04.191Z,6.43
2017-10-13T13:18:32.553Z,7.30
2017-10-13T13:21:01.683Z,7.30
2017-10-13T13:23:30.002Z,8.53
2017-10-13T13:25:58.384Z,5.03
2017-10-13T13:28:26.692Z,6.87
2017-10-13T13:30:55.760Z,5.93
2017-10-13T13:33:24.080Z,4.20
2017-10-13T13:35:53.150Z,12.03
2017-10-13T13:38:21.464Z,5.90
2017-10-13T13:40:50.532Z,6.93
2017-10-13T13:43:19.600Z,8.17
2017-10-13T13:45:47.907Z,9.17
2017-10-13T13:48:16.220Z,8.70
2017-10-13T13:50:45.340Z,7.17
2017-10-13T13:53:13.814Z,8.97
2017-10-13T13:55:42.124Z,9.30
2017-10-13T13:58:10.444Z,10.23
2017-10-13T14:00:38.740Z,10.83
2017-10-13T14:03:07.049Z,13.17
2017-10-13T14:05:35.381Z,8.47
2017-10-13T14:08:03.689Z,11.27
2017-10-13T14:10:32.776Z,11.93
2017-10-13T14:13:01.066Z,7.30
2017-10-13T14:15:30.141Z,10.90
2017-10-13T14:17:58.455Z,9.37
2017-10-13T14:20:27.541Z,9.90
2017-10-13T14:22:55.844Z,10.73
2017-10-13T14:25:24.947Z,10.40
2017-10-13T14:27:54.035Z,8.30
2017-10-13T14:30:23.097Z,7.73
2017-10-13T14:32:51.399Z,9.47
2017-10-13T14:35:19.708Z,7.07
2017-10-13T14:37:48.863Z,7.40
2017-10-13T14:40:17.179Z,7.00
2017-10-13T14:42:46.305Z,5.37
2017-10-13T14:45:14.598Z,7.03
2017-10-13T14:47:42.925Z,7.40
2017-10-13T14:50:11.241Z,9.30
2017-10-13T14:52:39.543Z,10.00
2017-10-13T14:55:07.848Z,6.60
2017-10-13T14:57:36.195Z,7.40
2017-10-13T15:00:04.512Z,6.30
2017-10-13T15:02:32.821Z,9.50
2017-10-13T15:05:01.960Z,10.47
2017-10-13T15:07:30.257Z,5.97
2017-10-13T15:09:58.557Z,6.73
2017-10-13T15:12:26.860Z,8.60
2017-10-13T15:14:55.162Z,8.00
2017-10-13T15:17:24.277Z,6.20
2017-10-13T15:19:52.573Z,9.47
2017-10-13T15:22:20.903Z,9.33
2017-10-13T15:24:55.567Z,4.90
2017-10-13T15:41:01.321Z,6.07
2017-10-13T15:43:35.167Z,7.47
2017-10-13T15:46:09.908Z,6.20
2017-10-13T15:48:38.321Z,7.80
2017-10-13T15:51:12.233Z,6.53
2017-10-13T15:53:40.549Z,9.47
2017-10-13T15:56:08.851Z,6.10
2017-10-13T15:58:37.913Z,8.07
2017-10-13T16:01:06.211Z,8.37
2017-10-13T16:03:34.544Z,7.67
2017-10-13T16:06:02.851Z,8.10
2017-10-13T16:08:31.163Z,6.73
2017-10-13T16:11:00.236Z,6.73
2017-10-13T16:13:28.543Z,6.90
2017-10-13T16:15:56.963Z,9.27
2017-10-13T16:18:25.285Z,10.50
2017-10-13T16:20:53.581Z,6.43
2017-10-13T16:23:21.889Z,8.80
2017-10-13T16:25:50.949Z,8.97
2017-10-13T16:28:19.267Z,5.90
2017-10-13T16:30:48.365Z,7.27
2017-10-13T16:33:17.437Z,6.50
2017-10-13T16:35:45.732Z,8.10
2017-10-13T16:38:14.036Z,7.73
2017-10-13T16:40:42.350Z,10.37
2017-10-13T16:43:10.661Z,9.07
2017-10-13T16:45:38.962Z,6.90
2017-10-13T16:48:08.035Z,7.93
2017-10-13T16:50:36.345Z,7.70
2017-10-13T16:53:05.513Z,8.47
2017-10-13T16:55:33.823Z,7.30
2017-10-13T16:58:02.903Z,7.10
2017-10-13T17:00:31.219Z,8.70
2017-10-13T17:02:59.522Z,8.90
2017-10-13T17:05:27.815Z,9.83
2017-10-13T17:07:56.116Z,7.60
2017-10-13T17:10:24.426Z,7.40
2017-10-13T17:12:53.496Z,10.03
2017-10-13T17:15:22.055Z,8.90
2017-10-13T17:17:50.353Z,7.37
2017-10-13T17:20:18.982Z,8.13
2017-10-13T17:22:48.045Z,9.57
2017-10-13T17:25:16.352Z,10.93
2017-10-13T17:27:44.672Z,11.50
2017-10-13T17:30:13.128Z,9.57
2017-10-13T17:32:42.340Z,9.03
2017-10-13T17:35:11.419Z,9.50
2017-10-13T17:37:39.733Z,10.07
2017-10-13T17:40:08.061Z,9.80
2017-10-13T17:42:36.371Z,10.43
2017-10-13T17:45:05.521Z,9.50
2017-10-13T17:47:33.824Z,8.47
2017-10-13T17:50:02.133Z,9.13
2017-10-13T17:52:31.218Z,7.70
2017-10-13T17:54:59.547Z,10.43
2017-10-13T17:57:27.862Z,8.17
2017-10-13T17:59:56.298Z,6.87
2017-10-13T18:02:25.373Z,7.27
2017-10-13T18:04:53.688Z,9.83
2017-10-13T18:07:22.000Z,11.17
2017-10-13T18:09:50.316Z,8.80
2017-10-13T18:12:19.412Z,6.40
2017-10-13T18:14:47.715Z,7.67
2017-10-13T18:17:16.893Z,9.43
2017-10-13T18:19:45.205Z,8.40
2017-10-13T18:22:13.514Z,5.97
2017-10-13T18:24:41.822Z,6.53
2017-10-13T18:27:10.120Z,8.83
2017-10-13T18:29:38.434Z,15.93
2017-10-13T18:32:06.736Z,8.60
2017-10-13T18:34:35.021Z,8.50
2017-10-13T18:37:03.320Z,6.60
2017-10-13T18:39:31.620Z,7.80
2017-10-13T18:41:59.957Z,9.57
2017-10-13T18:44:31.093Z,12.97
2017-10-13T18:46:59.388Z,9.60
2017-10-13T18:49:27.731Z,10.07
2017-10-13T18:51:56.854Z,9.33
2017-10-13T18:54:25.162Z,12.47
2017-10-13T18:56:53.515Z,13.40
2017-10-13T18:59:21.822Z,12.53
2017-10-13T19:01:50.166Z,11.33
2017-10-13T19:04:18.478Z,10.03
2017-10-13T19:06:46.784Z,12.70
2017-10-13T19:09:15.083Z,12.07
2017-10-13T19:11:43.410Z,10.97
2017-10-13T19:14:11.729Z,11.00
2017-10-13T19:16:40.050Z,12.83
2017-10-13T19:19:09.127Z,13.20
2017-10-13T19:21:38.212Z,13.40
2017-10-13T19:24:06.542Z,12.47
2017-10-13T19:26:34.852Z,10.97
2017-10-13T19:29:03.172Z,11.50
2017-10-13T19:31:32.269Z,10.80
2017-10-13T19:34:00.593Z,11.53
2017-10-13T19:36:28.912Z,10.87
2017-10-13T19:38:57.242Z,11.70
2017-10-13T19:41:25.552Z,11.03
2017-10-13T19:43:53.884Z,11.80
2017-10-13T19:46:22.971Z,15.23
2017-10-13T19:48:51.305Z,14.03
2017-10-13T19:51:19.719Z,12.70
2017-10-13T19:53:48.021Z,11.17
2017-10-13T19:56:16.337Z,12.93
2017-10-13T19:58:44.672Z,12.97
2017-10-13T20:01:12.986Z,10.33
2017-10-13T20:03:41.318Z,11.90
2017-10-13T20:06:09.623Z,14.23
2017-10-13T20:08:37.945Z,11.90
2017-10-13T20:11:06.281Z,11.10
2017-10-13T20:13:34.578Z,12.40
2017-10-13T20:16:03.652Z,13.53
2017-10-13T20:18:31.944Z,11.73
2017-10-13T20:21:00.288Z,12.40
2017-10-13T20:23:28.580Z,12.60
2017-10-13T20:25:56.874Z,8.70
2017-10-13T20:28:25.208Z,6.30
2017-10-13T20:30:53.509Z,5.57
2017-10-13T20:33:21.954Z,12.40
2017-10-13T20:35:51.066Z,5.23
2017-10-13T20:38:19.371Z,6.77
2017-10-13T20:40:47.670Z,5.80
2017-10-13T20:43:15.969Z,6.60
2017-10-13T20:45:44.268Z,6.70
2017-10-13T20:48:13.342Z,4.80
2017-10-13T20:50:41.650Z,6.23
2017-10-13T20:53:10.715Z,8.43
2017-10-13T20:55:39.012Z,3.80
2017-10-13T20:58:07.307Z,7.17
2017-10-13T21:00:35.604Z,7.77
2017-10-13T21:03:04.729Z,7.57
2017-10-13T21:05:33.186Z,12.63
2017-10-13T21:08:02.261Z,6.50
2017-10-13T21:10:30.587Z,13.23
2017-10-13T21:15:20.458Z,10.07
2017-10-13T21:17:48.778Z,10.93
2017-10-13T21:20:17.196Z,13.00
2017-10-13T21:22:45.503Z,7.93
2017-10-13T21:25:13.844Z,10.37
2017-10-13T21:27:42.140Z,15.50
2017-10-13T21:30:10.484Z,10.53
2017-10-13T21:32:38.849Z,9.60
2017-10-13T21:35:07.213Z,9.97
2017-10-13T21:37:35.543Z,15.97
2017-10-13T21:40:03.871Z,18.60
2017-10-13T21:42:32.208Z,14.83
2017-10-13T21:45:00.536Z,14.47
2017-10-13T21:47:29.632Z,15.37
2017-10-13T21:49:57.968Z,13.50
2017-10-13T21:52:26.307Z,16.47
2017-10-13T21:54:55.387Z,16.20
2017-10-13T21:57:23.721Z,12.50
2017-10-13T21:59:52.035Z,23.37
2017-10-13T22:02:20.356Z,17.00
2017-10-13T22:04:55.097Z,25.20
2017-10-13T22:07:23.418Z,14.47
2017-10-13T22:09:51.752Z,12.90
2017-10-13T22:12:20.836Z,17.00
2017-10-13T22:14:49.944Z,18.03
2017-10-13T22:17:19.026Z,18.97
2017-10-13T22:19:47.348Z,24.20
2017-10-13T22:22:15.686Z,22.83
2017-10-13T22:24:44.055Z,18.33
2017-10-13T22:27:12.401Z,13.67
2017-10-13T22:29:40.736Z,20.17
2017-10-13T22:32:09.060Z,22.47
2017-10-13T22:34:37.382Z,20.10
2017-10-13T22:37:05.742Z,25.43
2017-10-13T22:39:34.084Z,20.70
2017-10-13T22:42:03.173Z,13.20
2017-10-13T22:44:32.256Z,17.60
2017-10-13T22:47:00.584Z,18.57
2017-10-13T22:49:28.958Z,20.13
2017-10-13T22:51:57.281Z,17.73
2017-10-13T22:54:25.604Z,16.80
2017-10-13T22:56:54.685Z,22.13
2017-10-13T22:59:23.779Z,22.70
2017-10-13T23:01:52.100Z,19.77
2017-10-13T23:04:20.433Z,20.17
2017-10-13T23:06:48.762Z,24.07
2017-10-13T23:09:17.118Z,25.07
2017-10-13T23:11:45.448Z,23.60
2017-10-13T23:14:13.749Z,24.70
2017-10-13T23:16:42.057Z,19.67
2017-10-13T23:19:10.392Z,22.27
2017-10-13T23:21:38.705Z,22.43
2017-10-13T23:24:07.041Z,22.67
2017-10-13T23:26:35.483Z,23.23
2017-10-13T23:29:03.874Z,18.00
2017-10-13T23:31:32.951Z,23.47
2017-10-13T23:34:01.268Z,24.27
2017-10-13T23:36:30.360Z,23.13
2017-10-13T23:38:59.426Z,23.50
2017-10-13T23:41:27.738Z,20.10
2017-10-13T23:43:56.828Z,21.70
2017-10-13T23:46:25.161Z,20.03
2017-10-13T23:48:53.511Z,18.93
2017-10-13T23:51:22.595Z,25.10
2017-10-13T23:53:51.710Z,26.03
2017-10-13T23:56:20.812Z,24.23
2017-10-13T23:58:49.149Z,23.37
